Jackson, Missouri
Current Conditions -  °F | °C
As of 12:53 PM on Saturday 25 Oct 2014 (Local Time) from KCGI Reporting Station
Clear Clear  
Wind Chill: 76°   Ceiling: Unl
Heat Index: 76°   Visibility: 10mi
Dew Point: 62°   Wind: 3mph
Humidity: 62%   Direction: NA
Pressure: 30.02"   Gusts: NA
Location:  37.38°N, 89.67°W
Report Text: KCGI 251753Z VRB03KT 10SM CLR 24/17 A3002 RMK AO2 SLP165 T02440167 10250 20106 58013
Loading
Personal Weather Stations






























Interactive Weather Map New forecast layout! Learn more

10-Day Weather Forecast

Advertisements
Track Severe Weather on mobile